WETTER
   Tageswerte       Wochenwerte       Monatswerte       Jahresübersicht   
 
 
Tageswerte: Tabelle (min / Mittelwert / max)
 
Datum Temperatur
in °C
Luftdruck
in hPa
Luftfeuchte
in % (rel.)
Brunnen-
wasser-
stand in m
Niederschlag
in l/m²
(Summe)
Beleuchtungs-
stärke (max)
in lux
2020-02-16 17:00 – 18:00 0.0 10.8 0.0 0 937 0 0 0 0 0.0 5.1 0.0 0 150
2020-02-16 16:00 – 17:00 0.0 12.5 0.0 0 937 0 0 0 0 0.0 5.1 0.0 0 850
2020-02-16 15:00 – 16:00 0.0 14.3 0.0 0 937 0 0 0 0 0.0 5.0 0.0 0 1700
2020-02-16 14:00 – 15:00 0.0 15.8 0.0 0 938 0 0 0 0 0.0 5.0 0.0 0 4100
2020-02-16 13:00 – 14:00 0.0 15.8 0.0 0 938 0 0 0 0 0.0 5.0 0.0 0 4100
2020-02-16 12:00 – 13:00 0.0 15.5 0.0 0 939 0 0 0 0 0.0 5.0 0.0 0 4100
2020-02-16 11:00 – 12:00 0.0 12.9 0.0 0 940 0 0 0 0 0.0 5.0 0.0 0 4100
2020-02-16 10:00 – 11:00 0.0 8.5 0.0 0 940 0 0 0 0 0.0 4.9 0.0 0 4100
2020-02-16 09:00 – 10:00 0.0 6.3 0.0 0 940 0 0 0 0 0.0 4.9 0.0 0 1700
2020-02-16 08:00 – 09:00 0.0 4.4 0.0 0 940 0 0 0 0 0.0 4.9 0.0 0 1700
2020-02-16 07:00 – 08:00 0.0 3.5 0.0 0 940 0 0 0 0 0.0 4.9 0.0 0 330
2020-02-16 06:00 – 07:00 0.0 3.4 0.0 0 940 0 0 0 0 0.0 4.8 0.0 0 0
2020-02-16 05:00 – 06:00 0.0 3.4 0.0 0 940 0 0 0 0 0.0 4.8 0.0 0 0
2020-02-16 04:00 – 05:00 0.0 3.5 0.0 0 940 0 0 0 0 0.0 4.8 0.0 0 0
2020-02-16 03:00 – 04:00 0.0 3.4 0.0 0 940 0 0 0 0 0.0 4.8 0.0 0 0
2020-02-16 02:00 – 03:00 0.0 3.7 0.0 0 940 0 0 0 0 0.0 4.7 0.0 0 0
2020-02-16 01:00 – 02:00 0.0 4.1 0.0 0 940 0 0 0 0 0.0 4.7 0.0 0 0
2020-02-16 00:00 – 01:00 0.0 4.1 0.0 0 940 0 0 0 0 0.0 4.7 0.0 0 0
2020-02-15 23:00 – 24:00 0.0 4.2 0.0 0 940 0 0 0 0 0.0 4.6 0.0 0 0
2020-02-15 22:00 – 23:00 0.0 4.7 0.0 0 940 0 0 0 0 0.0 4.6 0.0 0 0
2020-02-15 21:00 – 22:00 0.0 4.7 0.0 0 940 0 0 0 0 0.0 4.6 0.0 0 0
2020-02-15 20:00 – 21:00 0.0 5.3 0.0 0 941 0 0 0 0 0.0 4.5 0.0 0 0
 
   Tabelle       Temperatur       Luftdruck       Luftfeuchte       Brunnenwasserstand       Niederschlag       Lichstärke